Time;durP1;ratioP1;P1;durP2;ratioP2;P2;SDS_P1;SDS_P2;PMS_P1;PMS_P2;Temp;Humidity;BMP_temperature;BMP_pressure;BME280_temperature;BME280_humidity;BME280_pressure;Samples;Min_cycle;Max_cycle;Signal;HPM_P1;HPM_P2
2021/07/21 00:02:03;;;;;;;10.13;5.95;;;14.80;81.90;;;;;;4968033;28;20035;-73
2021/07/21 00:04:29;;;;;;;9.35;5.60;;;14.70;81.80;;;;;;4968283;28;20056;-72
2021/07/21 00:06:55;;;;;;;9.50;5.38;;;14.70;82.40;;;;;;4968642;28;20488;-72
2021/07/21 00:09:21;;;;;;;14.25;6.07;;;14.60;82.70;;;;;;4966853;28;20297;-72
2021/07/21 00:14:32;;;;;;;11.15;4.80;;;14.40;83.50;;;;;;4977802;28;20516;-72
2021/07/21 00:17:01;;;;;;;9.07;5.38;;;14.40;83.60;;;;;;4971352;28;20035;-73
2021/07/21 00:22:14;;;;;;;11.50;6.22;;;14.40;84.00;;;;;;4970533;28;20092;-72
2021/07/21 00:24:43;;;;;;;;;;;14.30;84.60;;;;;;4966308;28;20026;-72
2021/07/21 00:27:09;;;;;;;9.98;5.25;;;14.40;84.80;;;;;;4967290;28;19921;-71
2021/07/21 00:29:35;;;;;;;10.70;5.22;;;14.20;85.90;;;;;;4967954;28;20030;-72
2021/07/21 00:32:01;;;;;;;10.43;5.50;;;14.10;85.50;;;;;;4968578;28;20808;-73
2021/07/21 00:34:27;;;;;;;9.50;5.07;;;14.30;84.80;;;;;;4970059;28;20042;-73
2021/07/21 00:36:52;;;;;;;11.60;5.30;;;14.30;84.40;;;;;;4968356;28;20491;-73
2021/07/21 00:39:18;;;;;;;9.02;5.32;;;14.20;84.50;;;;;;4970737;28;20066;-73
2021/07/21 00:41:46;;;;;;;13.75;6.10;;;14.20;84.60;;;;;;4968802;28;20033;-72
2021/07/21 00:44:12;;;;;;;10.38;5.03;;;14.20;84.50;;;;;;4970412;28;20038;-72
2021/07/21 00:46:38;;;;;;;11.00;5.55;;;14.20;84.20;;;;;;4982588;28;20088;-72
2021/07/21 00:49:04;;;;;;;12.40;5.50;;;14.20;84.20;;;;;;4974502;28;20026;-72
2021/07/21 00:51:30;;;;;;;10.50;5.80;;;14.20;83.90;;;;;;4973584;28;20027;-72
2021/07/21 00:53:56;;;;;;;8.30;4.70;;;14.30;83.30;;;;;;4971691;28;20038;-73
2021/07/21 00:56:22;;;;;;;8.15;5.03;;;14.20;83.40;;;;;;4973092;28;20037;-72
2021/07/21 00:58:48;;;;;;;7.03;4.53;;;14.10;83.80;;;;;;4976854;28;20034;-71
2021/07/21 01:01:14;;;;;;;4.85;3.10;;;14.00;83.50;;;;;;4976757;28;20092;-70
2021/07/21 01:03:39;;;;;;;6.45;4.20;;;13.90;83.00;;;;;;4977850;28;20030;-71
2021/07/21 01:06:05;;;;;;;6.30;3.97;;;13.80;83.80;;;;;;4968391;28;20780;-71
2021/07/21 01:08:31;;;;;;;8.13;5.03;;;13.90;83.50;;;;;;4969368;28;20106;-72
2021/07/21 01:11:21;;;;;;;10.23;4.93;;;13.90;83.80;;;;;;4971282;28;20125;-71
2021/07/21 01:14:11;;;;;;;9.25;4.70;;;13.80;85.70;;;;;;4971768;28;20092;-71
2021/07/21 01:16:43;;;;;;;6.82;5.18;;;13.80;84.20;;;;;;4971125;28;20030;-71
2021/07/21 01:19:29;;;;;;;11.48;5.05;;;13.80;85.30;;;;;;4974205;28;20154;-71
2021/07/21 01:22:10;;;;;;;8.25;4.53;;;13.80;85.30;;;;;;4973210;28;20031;-72
2021/07/21 01:25:09;;;;;;;9.68;5.00;;;13.90;84.80;;;;;;4967971;28;20035;-71
2021/07/21 01:27:48;;;;;;;9.80;5.07;;;13.90;84.10;;;;;;4974600;28;20086;-71
2021/07/21 01:30:21;;;;;;;7.45;4.75;;;13.90;84.60;;;;;;4981784;28;20026;-71
2021/07/21 01:32:53;;;;;;;8.80;4.35;;;13.90;83.50;;;;;;4978447;28;20038;-71
2021/07/21 01:35:26;;;;;;;7.07;4.20;;;13.50;82.10;;;;;;4974628;28;20022;-71
2021/07/21 01:38:04;;;;;;;8.18;3.97;;;13.50;83.40;;;;;;4971973;28;21554;-72
2021/07/21 01:40:37;;;;;;;4.32;3.15;;;13.40;82.60;;;;;;4978223;28;20026;-72
2021/07/21 01:43:07;;;;;;;6.85;3.95;;;13.50;82.60;;;;;;4974126;28;20077;-72
2021/07/21 01:45:34;;;;;;;6.55;4.25;;;13.40;83.80;;;;;;4970510;28;20030;-72
2021/07/21 01:48:01;;;;;;;10.38;5.30;;;13.40;84.70;;;;;;4973311;28;20509;-72
2021/07/21 01:50:30;;;;;;;7.65;5.07;;;13.30;85.70;;;;;;4979430;28;20128;-72
2021/07/21 01:52:58;;;;;;;9.25;5.13;;;13.20;86.30;;;;;;4982181;28;20022;-73
2021/07/21 01:55:25;;;;;;;;;;;13.20;87.40;;;;;;4980659;28;20401;-72
2021/07/21 01:57:52;;;;;;;12.57;5.20;;;13.30;86.50;;;;;;4973260;28;19917;-71
2021/07/21 02:00:19;;;;;;;11.70;6.32;;;13.20;86.50;;;;;;4977750;28;20026;-72
2021/07/21 02:02:49;;;;;;;9.50;5.05;;;13.30;87.40;;;;;;4980999;28;20046;-71
2021/07/21 02:05:16;;;;;;;11.07;5.88;;;13.30;86.70;;;;;;4976799;28;20026;-72
2021/07/21 02:07:44;;;;;;;8.60;4.32;;;13.30;86.00;;;;;;4978334;28;20049;-71
2021/07/21 02:10:14;;;;;;;6.45;3.42;;;13.20;84.50;;;;;;4970577;28;20165;-72
2021/07/21 02:12:40;;;;;;;2.60;2.20;;;13.20;83.70;;;;;;4977263;28;20035;-73
2021/07/21 02:15:06;;;;;;;3.55;2.30;;;13.10;83.70;;;;;;4978623;28;20026;-73
2021/07/21 02:17:33;;;;;;;4.47;2.60;;;13.10;83.50;;;;;;4977199;28;20062;-72
2021/07/21 02:19:59;;;;;;;4.47;2.60;;;13.00;83.40;;;;;;4975120;28;20034;-72
2021/07/21 02:22:25;;;;;;;3.78;2.97;;;13.10;83.40;;;;;;4976374;28;20044;-72
2021/07/21 02:24:51;;;;;;;4.97;3.30;;;13.10;84.00;;;;;;4972908;28;20042;-71
2021/07/21 02:27:17;;;;;;;8.07;3.88;;;13.00;84.30;;;;;;4971259;28;20619;-71
2021/07/21 02:29:43;;;;;;;7.25;4.22;;;13.00;84.80;;;;;;4973029;28;20029;-70
2021/07/21 02:32:18;;;;;;;7.95;4.85;;;13.00;86.30;;;;;;4972130;28;20043;-72
2021/07/21 02:34:44;;;;;;;8.82;5.03;;;13.00;86.40;;;;;;4978795;28;20393;-71
2021/07/21 02:37:14;;;;;;;7.95;4.50;;;12.90;86.70;;;;;;4977851;28;20038;-71
2021/07/21 02:39:41;;;;;;;8.35;4.72;;;12.90;86.90;;;;;;4971320;28;20110;-72
2021/07/21 02:42:07;;;;;;;8.63;4.50;;;12.80;86.60;;;;;;4974851;28;20037;-72
2021/07/21 02:44:33;;;;;;;8.05;4.13;;;12.90;86.30;;;;;;4968218;28;20026;-72
2021/07/21 02:46:58;;;;;;;8.75;4.80;;;12.90;85.60;;;;;;4965874;28;20022;-72
2021/07/21 02:49:24;;;;;;;8.35;4.13;;;12.80;87.60;;;;;;4975664;28;20033;-72
2021/07/21 02:51:55;;;;;;;9.27;5.35;;;12.70;87.70;;;;;;4968353;28;20054;-71
2021/07/21 02:54:26;;;;;;;7.88;4.75;;;12.70;87.70;;;;;;4969938;28;20030;-73
2021/07/21 02:56:57;;;;;;;9.25;5.32;;;12.80;87.80;;;;;;4968799;28;20034;-72
2021/07/21 02:59:35;;;;;;;8.52;5.13;;;12.70;88.20;;;;;;4968295;28;21009;-71
2021/07/21 03:02:02;;;;;;;5.57;4.00;;;12.70;88.00;;;;;;4972035;28;20053;-72
2021/07/21 03:04:29;;;;;;;5.07;2.92;;;12.70;85.80;;;;;;4967222;28;20034;-72
2021/07/21 03:06:57;;;;;;;5.03;3.28;;;12.50;84.90;;;;;;4972667;28;20030;-72
2021/07/21 03:09:24;;;;;;;9.68;4.55;;;12.40;85.80;;;;;;4969124;28;20050;-72
2021/07/21 03:11:54;;;;;;;6.53;4.13;;;12.40;87.00;;;;;;4965584;28;20034;-72
2021/07/21 03:14:21;;;;;;;9.07;4.80;;;12.60;87.00;;;;;;4981564;28;20038;-73
2021/07/21 03:16:51;;;;;;;7.63;4.50;;;12.50;87.80;;;;;;4969521;28;20030;-73
2021/07/21 03:19:23;;;;;;;12.30;4.80;;;12.40;88.10;;;;;;4972459;28;20058;-72
2021/07/21 03:21:50;;;;;;;12.35;5.13;;;12.40;88.90;;;;;;4968357;28;20084;-73
2021/07/21 03:24:16;;;;;;;9.60;5.47;;;12.40;88.30;;;;;;4969719;28;20030;-72
2021/07/21 03:26:42;;;;;;;8.95;4.80;;;12.50;87.60;;;;;;4970474;28;20026;-72
2021/07/21 03:29:09;;;;;;;11.25;4.75;;;12.50;87.60;;;;;;4972357;28;20026;-72
2021/07/21 03:31:36;;;;;;;8.48;4.57;;;12.50;87.80;;;;;;4969524;28;20066;-73
2021/07/21 03:34:08;;;;;;;7.82;4.47;;;12.50;88.10;;;;;;4971927;28;20100;-72
2021/07/21 03:36:37;;;;;;;4.22;2.80;;;12.50;88.30;;;;;;4970319;28;20334;-72
2021/07/21 03:39:06;;;;;;;6.97;3.20;;;12.40;84.80;;;;;;4967803;28;20038;-72
2021/07/21 03:41:33;;;;;;;3.75;2.83;;;12.30;85.00;;;;;;4963821;28;20026;-73
2021/07/21 03:44:02;;;;;;;3.47;2.50;;;12.40;85.10;;;;;;4966467;28;20170;-71
2021/07/21 03:46:29;;;;;;;3.55;2.33;;;12.40;85.20;;;;;;4973406;28;20030;-71
2021/07/21 03:48:57;;;;;;;3.00;2.10;;;12.30;85.70;;;;;;4969816;28;20743;-71
2021/07/21 03:51:24;;;;;;;1.65;1.52;;;12.30;85.60;;;;;;4984320;28;20726;-71
2021/07/21 03:53:51;;;;;;;2.47;1.70;;;12.30;85.50;;;;;;4965051;28;20117;-71
2021/07/21 03:56:18;;;;;;;2.28;1.40;;;12.20;86.00;;;;;;4968478;28;20026;-72
2021/07/21 03:58:44;;;;;;;2.15;1.88;;;12.00;87.60;;;;;;4970535;28;20041;-71
2021/07/21 04:01:11;;;;;;;7.90;4.05;;;12.00;88.10;;;;;;4966086;28;20038;-71
2021/07/21 04:03:38;;;;;;;7.13;4.07;;;12.10;88.60;;;;;;4970817;28;20053;-70
2021/07/21 04:06:07;;;;;;;8.80;4.90;;;12.20;88.90;;;;;;4968526;28;20034;-71
2021/07/21 04:08:33;;;;;;;;;;;12.30;88.90;;;;;;4966538;28;20026;-72
2021/07/21 04:11:00;;;;;;;8.60;5.13;;;12.30;89.20;;;;;;4968326;28;20437;-72
2021/07/21 04:13:27;;;;;;;6.70;3.85;;;12.40;88.70;;;;;;4966426;28;20497;-72
2021/07/21 04:15:55;;;;;;;7.60;4.43;;;12.50;88.10;;;;;;4966672;28;20069;-72
2021/07/21 04:18:22;;;;;;;;;;;12.70;87.30;;;;;;4970563;28;20092;-72
2021/07/21 04:20:51;;;;;;;8.55;4.38;;;12.70;86.80;;;;;;4964911;28;19917;-71
2021/07/21 04:23:22;;;;;;;3.58;3.00;;;12.80;85.70;;;;;;4967407;28;20030;-71
2021/07/21 04:25:50;;;;;;;6.47;3.78;;;12.90;84.50;;;;;;4970112;28;20038;-72
2021/07/21 04:28:17;;;;;;;13.48;4.97;;;12.90;84.40;;;;;;4968304;28;20038;-73
2021/07/21 04:30:42;;;;;;;7.72;4.50;;;12.90;85.20;;;;;;4964189;28;20042;-72
2021/07/21 04:33:08;;;;;;;3.47;2.63;;;13.00;85.70;;;;;;4968292;28;20026;-73
2021/07/21 04:35:34;;;;;;;5.22;3.30;;;13.00;84.80;;;;;;4969090;28;20035;-73
2021/07/21 04:38:00;;;;;;;5.82;3.40;;;13.00;84.20;;;;;;4971307;28;20923;-72
2021/07/21 04:40:27;;;;;;;5.80;3.55;;;12.90;85.10;;;;;;4968340;28;20037;-72
2021/07/21 04:42:53;;;;;;;9.10;4.50;;;12.90;85.60;;;;;;4966750;28;20027;-72
2021/07/21 04:45:21;;;;;;;8.73;4.75;;;12.80;86.50;;;;;;4968103;28;20046;-72
2021/07/21 04:47:47;;;;;;;7.78;5.18;;;12.90;86.60;;;;;;4968340;28;20030;-72
2021/07/21 04:50:19;;;;;;;11.73;5.13;;;12.90;86.70;;;;;;4970770;28;20121;-72
2021/07/21 04:52:45;;;;;;;7.93;4.65;;;13.00;86.50;;;;;;4965758;28;20389;-72
2021/07/21 04:55:12;;;;;;;9.88;5.07;;;13.20;86.50;;;;;;4969653;28;20027;-73
2021/07/21 04:57:38;;;;;;;8.45;4.97;;;13.30;86.30;;;;;;4968624;28;20118;-72
2021/07/21 05:00:06;;;;;;;10.70;6.03;;;13.30;86.40;;;;;;4969393;28;20030;-73
2021/07/21 05:02:32;;;;;;;8.77;4.95;;;13.40;86.40;;;;;;4967156;28;20136;-72
2021/07/21 05:04:58;;;;;;;9.45;5.03;;;13.40;86.00;;;;;;4966179;28;20037;-72
2021/07/21 05:07:24;;;;;;;13.30;5.63;;;13.50;86.10;;;;;;4965629;28;20117;-73
2021/07/21 05:09:50;;;;;;;9.75;5.32;;;13.60;86.90;;;;;;4968390;28;21333;-72
2021/07/21 05:12:16;;;;;;;7.32;5.20;;;13.70;86.40;;;;;;4968994;28;20164;-73
2021/07/21 05:14:42;;;;;;;9.70;5.85;;;13.80;86.20;;;;;;4969738;28;20031;-73
2021/07/21 05:17:07;;;;;;;9.45;5.50;;;13.90;86.30;;;;;;4972375;28;20038;-72
2021/07/21 05:19:33;;;;;;;9.85;5.70;;;13.90;86.20;;;;;;4968299;28;20077;-72
2021/07/21 05:21:59;;;;;;;9.38;5.72;;;14.10;86.10;;;;;;4967549;28;20117;-72
2021/07/21 05:24:25;;;;;;;12.02;6.28;;;14.10;86.90;;;;;;4968127;28;20039;-70
2021/07/21 05:26:51;;;;;;;10.13;5.72;;;14.20;87.20;;;;;;4967722;28;20031;-72
2021/07/21 05:29:17;;;;;;;11.38;5.95;;;14.40;87.80;;;;;;4970801;28;20030;-71
2021/07/21 05:31:43;;;;;;;8.73;5.32;;;14.30;87.30;;;;;;4967678;28;20054;-71
2021/07/21 05:34:10;;;;;;;9.32;6.10;;;14.50;86.80;;;;;;4984232;28;20039;-72
2021/07/21 05:36:38;;;;;;;12.15;6.25;;;14.50;86.60;;;;;;4973185;28;22213;-72
2021/07/21 05:39:09;;;;;;;12.20;6.03;;;14.50;87.10;;;;;;4980820;28;20101;-72
2021/07/21 05:41:35;;;;;;;11.48;5.80;;;14.50;87.80;;;;;;4976246;28;20030;-72
2021/07/21 05:44:01;;;;;;;13.77;6.15;;;14.60;88.00;;;;;;4978868;28;20014;-71
2021/07/21 05:46:27;;;;;;;12.80;7.15;;;14.60;86.80;;;;;;4972810;28;20027;-72
2021/07/21 05:48:53;;;;;;;13.98;6.97;;;14.70;87.40;;;;;;4968656;28;20034;-71
2021/07/21 05:51:19;;;;;;;10.10;5.90;;;14.70;86.80;;;;;;4972662;28;20035;-72
2021/07/21 05:53:48;;;;;;;12.43;7.35;;;14.80;86.40;;;;;;4969268;28;20034;-72
2021/07/21 05:56:15;;;;;;;10.70;6.50;;;14.90;85.50;;;;;;4977850;28;20026;-72
2021/07/21 05:58:41;;;;;;;13.48;6.78;;;15.00;86.20;;;;;;4980592;28;20045;-71
2021/07/21 06:01:07;;;;;;;12.45;6.10;;;15.20;85.40;;;;;;4976326;28;20199;-72
2021/07/21 06:03:32;;;;;;;11.00;6.63;;;15.30;84.90;;;;;;4981985;28;20118;-72
2021/07/21 06:05:58;;;;;;;12.95;7.07;;;15.40;85.10;;;;;;4981302;28;20121;-72
2021/07/21 06:08:27;;;;;;;13.32;7.65;;;15.50;84.00;;;;;;4981600;28;20037;-73
2021/07/21 06:10:53;;;;;;;13.23;6.60;;;15.60;84.30;;;;;;4982268;28;21314;-72
2021/07/21 06:13:29;;;;;;;13.90;7.03;;;15.60;85.00;;;;;;4983963;28;20033;-70
2021/07/21 06:15:55;;;;;;;12.30;7.10;;;15.70;84.50;;;;;;4983653;28;21082;-73
2021/07/21 06:18:21;;;;;;;15.88;7.68;;;15.70;86.20;;;;;;4980857;28;20022;-74
2021/07/21 06:20:46;;;;;;;13.57;7.60;;;15.80;85.50;;;;;;4969883;28;20038;-73
2021/07/21 06:23:12;;;;;;;16.40;9.23;;;15.80;84.40;;;;;;4979698;28;20030;-73
2021/07/21 06:25:38;;;;;;;20.15;8.60;;;15.90;84.30;;;;;;4969034;28;20153;-73
2021/07/21 06:28:04;;;;;;;18.10;8.63;;;16.00;84.80;;;;;;4981159;28;20042;-73
2021/07/21 06:30:30;;;;;;;14.90;7.93;;;16.00;83.60;;;;;;4973541;28;20036;-73
2021/07/21 06:32:55;;;;;;;14.30;7.45;;;16.10;84.30;;;;;;4977843;28;20207;-73
2021/07/21 06:35:21;;;;;;;13.77;8.30;;;16.20;85.30;;;;;;4976843;28;20038;-73
2021/07/21 06:37:47;;;;;;;15.20;8.57;;;16.20;83.80;;;;;;4975277;28;20068;-73
2021/07/21 06:40:14;;;;;;;16.38;8.85;;;16.40;86.20;;;;;;4980543;28;20080;-72
2021/07/21 06:42:39;;;;;;;14.95;8.43;;;16.40;84.10;;;;;;4973018;28;20031;-73
2021/07/21 06:45:06;;;;;;;14.98;8.35;;;16.60;84.40;;;;;;4977971;28;20026;-72
2021/07/21 06:47:31;;;;;;;17.55;9.10;;;16.60;85.30;;;;;;4976254;28;20042;-73
2021/07/21 06:49:57;;;;;;;18.58;9.63;;;16.70;83.60;;;;;;4979604;28;20492;-73
2021/07/21 06:52:24;;;;;;;15.82;8.80;;;16.80;86.20;;;;;;4980350;28;20018;-73
2021/07/21 06:54:50;;;;;;;15.10;9.07;;;16.90;82.40;;;;;;4975127;28;20037;-73
2021/07/21 06:57:16;;;;;;;18.00;9.60;;;17.00;85.90;;;;;;4973864;28;20535;-72
2021/07/21 06:59:41;;;;;;;17.33;8.68;;;17.10;83.60;;;;;;4975173;28;20038;-73
2021/07/21 07:02:08;;;;;;;17.83;8.75;;;17.20;83.20;;;;;;4980973;28;20057;-73
2021/07/21 07:04:34;;;;;;;17.33;9.23;;;17.30;83.90;;;;;;4974807;28;20706;-74
2021/07/21 07:06:59;;;;;;;19.50;9.27;;;17.50;82.80;;;;;;4975535;28;20035;-73
2021/07/21 07:09:25;;;;;;;17.50;9.32;;;17.60;81.60;;;;;;4982217;28;20467;-73
2021/07/21 07:11:52;;;;;;;15.73;8.43;;;17.70;81.60;;;;;;4974586;28;20022;-73
2021/07/21 07:14:19;;;;;;;14.88;8.73;;;17.70;82.80;;;;;;4974480;28;20053;-73
2021/07/21 07:16:44;;;;;;;21.33;8.90;;;17.90;81.90;;;;;;4975607;28;20027;-73
2021/07/21 07:19:10;;;;;;;19.48;9.18;;;18.00;84.70;;;;;;4973651;28;20152;-73
2021/07/21 07:21:36;;;;;;;21.25;8.88;;;18.00;81.00;;;;;;4978789;28;20120;-73
2021/07/21 07:24:02;;;;;;;14.70;8.45;;;18.10;80.80;;;;;;4976277;28;20054;-73
2021/07/21 07:26:28;;;;;;;15.98;8.38;;;18.10;82.00;;;;;;4969903;28;20038;-72
2021/07/21 07:28:54;;;;;;;15.80;8.18;;;18.30;79.90;;;;;;4975535;28;20030;-72
2021/07/21 07:31:20;;;;;;;15.18;8.27;;;18.30;79.80;;;;;;4982336;28;20035;-72
2021/07/21 07:33:46;;;;;;;15.48;8.23;;;18.40;79.20;;;;;;4979531;28;20027;-72
2021/07/21 07:36:12;;;;;;;16.27;8.13;;;18.50;80.40;;;;;;4976072;28;20050;-72
2021/07/21 07:38:38;;;;;;;14.95;7.65;;;18.60;78.40;;;;;;4972569;28;20061;-72
2021/07/21 07:41:03;;;;;;;19.90;7.25;;;18.70;77.40;;;;;;4973848;28;20022;-73
2021/07/21 07:43:29;;;;;;;18.70;7.95;;;18.70;76.60;;;;;;4973532;28;20438;-73
2021/07/21 07:45:58;;;;;;;15.95;8.07;;;18.90;78.10;;;;;;4976400;28;20038;-74
2021/07/21 07:48:25;;;;;;;13.40;7.55;;;18.90;75.70;;;;;;4968637;28;20034;-73
2021/07/21 07:50:51;;;;;;;14.43;7.78;;;19.00;75.20;;;;;;4974917;28;20116;-73
2021/07/21 07:53:16;;;;;;;14.52;7.78;;;19.20;76.30;;;;;;4970959;28;20065;-74
2021/07/21 07:55:42;;;;;;;16.85;7.50;;;19.30;76.80;;;;;;4975435;28;20036;-73
2021/07/21 07:58:08;;;;;;;10.75;6.82;;;19.50;74.10;;;;;;4971750;28;20045;-74
2021/07/21 08:00:34;;;;;;;11.65;6.68;;;19.50;72.50;;;;;;4970848;28;20035;-74
2021/07/21 08:03:00;;;;;;;14.65;7.03;;;19.70;73.40;;;;;;4973639;28;20030;-74
2021/07/21 08:05:25;;;;;;;14.82;7.20;;;19.80;73.30;;;;;;4980228;28;20014;-74
2021/07/21 08:07:56;;;;;;;11.60;6.55;;;19.90;71.50;;;;;;4978338;28;20035;-77
2021/07/21 08:10:23;;;;;;;14.90;7.38;;;19.90;68.40;;;;;;4979759;28;20018;-73
2021/07/21 08:12:49;;;;;;;12.18;7.40;;;19.90;70.30;;;;;;4973640;28;20030;-74
2021/07/21 08:15:15;;;;;;;14.88;8.13;;;19.90;67.80;;;;;;4977299;28;20404;-74
2021/07/21 08:17:42;;;;;;;13.90;6.78;;;20.00;70.10;;;;;;4996526;28;20030;-75
2021/07/21 08:20:09;;;;;;;10.90;6.22;;;20.30;68.40;;;;;;4974188;28;20027;-73
2021/07/21 08:22:39;;;;;;;13.98;6.90;;;20.30;65.90;;;;;;4978132;28;20121;-74
2021/07/21 08:25:10;;;;;;;14.88;7.10;;;20.40;69.70;;;;;;4972312;28;20097;-74
2021/07/21 08:27:36;;;;;;;12.65;6.35;;;20.60;68.60;;;;;;4972225;28;20038;-74
2021/07/21 08:30:09;;;;;;;13.27;6.82;;;20.80;67.80;;;;;;4977913;28;20031;-74
2021/07/21 08:32:35;;;;;;;12.63;7.55;;;20.80;65.60;;;;;;4970493;28;20487;-74
2021/07/21 08:35:00;;;;;;;12.25;6.57;;;20.70;65.50;;;;;;4972564;28;20106;-74
2021/07/21 08:37:26;;;;;;;12.02;6.60;;;20.80;67.40;;;;;;4979281;28;20068;-74
2021/07/21 08:39:52;;;;;;;10.25;6.15;;;21.00;65.00;;;;;;4964773;28;20039;-74
2021/07/21 08:42:18;;;;;;;11.63;6.80;;;21.10;63.60;;;;;;4979704;28;20027;-74
2021/07/21 08:44:44;;;;;;;10.55;6.00;;;21.10;62.20;;;;;;4969625;28;20507;-74
2021/07/21 08:47:11;;;;;;;10.52;6.20;;;21.10;62.20;;;;;;4979231;28;20157;-74
2021/07/21 08:49:37;;;;;;;11.48;6.35;;;21.20;63.10;;;;;;4974599;28;20026;-73
2021/07/21 08:52:03;;;;;;;10.77;6.22;;;21.30;62.50;;;;;;4972893;28;20022;-74
2021/07/21 08:54:30;;;;;;;11.40;6.30;;;21.40;63.00;;;;;;4976460;28;20088;-73
2021/07/21 08:56:57;;;;;;;9.32;5.63;;;21.40;63.20;;;;;;4970946;28;20033;-74
2021/07/21 08:59:26;;;;;;;10.82;6.50;;;21.50;62.40;;;;;;4981591;28;20034;-73
2021/07/21 09:01:53;;;;;;;10.15;6.40;;;21.60;61.70;;;;;;4973579;28;20098;-72
2021/07/21 09:04:18;;;;;;;10.40;6.38;;;21.70;62.20;;;;;;4975006;28;20493;-73
2021/07/21 09:06:45;;;;;;;10.40;5.47;;;21.80;61.60;;;;;;4976345;28;20034;-73
2021/07/21 09:09:10;;;;;;;10.00;5.88;;;21.80;60.20;;;;;;4974882;28;20378;-74
2021/07/21 09:11:37;;;;;;;10.07;6.20;;;21.80;57.50;;;;;;4983885;28;20090;-73
2021/07/21 09:14:03;;;;;;;13.30;6.97;;;21.90;60.50;;;;;;4979862;28;20744;-73
2021/07/21 09:16:29;;;;;;;9.68;6.13;;;21.90;59.90;;;;;;4979775;28;20033;-74
2021/07/21 09:18:58;;;;;;;9.25;5.95;;;21.90;56.70;;;;;;4972612;28;20038;-74
2021/07/21 09:21:26;;;;;;;12.48;5.78;;;21.90;57.80;;;;;;4982456;28;20053;-73
2021/07/21 09:23:54;;;;;;;12.55;6.35;;;22.00;56.80;;;;;;4980765;28;20516;-74
2021/07/21 09:26:39;;;;;;;8.48;5.43;;;22.10;59.10;;;;;;4979976;28;20035;-73
2021/07/21 09:29:05;;;;;;;12.70;6.05;;;22.30;61.70;;;;;;4976567;28;20117;-73
2021/07/21 09:31:43;;;;;;;10.13;6.43;;;22.30;57.60;;;;;;4971881;28;20038;-74
2021/07/21 09:34:25;;;;;;;13.48;6.45;;;22.30;58.70;;;;;;4980264;28;20030;-74
2021/07/21 09:37:12;;;;;;;13.75;6.68;;;22.40;56.80;;;;;;4974701;28;20125;-74
2021/07/21 09:39:42;;;;;;;10.90;6.18;;;22.50;56.30;;;;;;4974160;28;20033;-74
2021/07/21 09:42:09;;;;;;;10.80;6.38;;;22.60;57.20;;;;;;4976518;28;20269;-73
2021/07/21 09:44:45;;;;;;;8.75;5.85;;;22.80;54.50;;;;;;4976574;28;20038;-73
2021/07/21 09:47:16;;;;;;;12.07;6.30;;;22.80;57.10;;;;;;4975789;28;20042;-73
2021/07/21 09:49:44;;;;;;;12.70;6.80;;;22.70;55.80;;;;;;4978913;28;20019;-73
2021/07/21 09:52:20;;;;;;;13.88;6.68;;;22.70;55.40;;;;;;4978940;28;20033;-74
2021/07/21 09:55:10;;;;;;;10.57;6.60;;;22.70;54.40;;;;;;4984332;28;20096;-74
2021/07/21 09:57:37;;;;;;;11.73;6.35;;;22.70;52.50;;;;;;4981811;28;20686;-73
2021/07/21 10:00:18;;;;;;;14.10;7.15;;;22.80;54.00;;;;;;4978870;28;20524;-74
2021/07/21 10:02:46;;;;;;;13.50;6.53;;;23.10;55.20;;;;;;4979379;28;20072;-73
2021/07/21 10:05:12;;;;;;;;;;;23.10;55.10;;;;;;4977113;28;20069;-73
2021/07/21 10:07:50;;;;;;;13.27;6.05;;;23.00;54.90;;;;;;4972818;28;20005;-74
2021/07/21 10:10:20;;;;;;;10.43;5.65;;;23.20;56.50;;;;;;4978783;28;20050;-74
2021/07/21 10:13:05;;;;;;;11.55;6.40;;;23.30;54.80;;;;;;4985632;28;20026;-73
2021/07/21 10:15:31;;;;;;;10.18;6.35;;;23.40;54.20;;;;;;4978004;28;20042;-74
2021/07/21 10:18:09;;;;;;;11.00;6.20;;;23.40;53.50;;;;;;4982283;28;20408;-74
2021/07/21 10:20:36;;;;;;;9.35;6.20;;;23.50;54.20;;;;;;4982150;28;20069;-73
2021/07/21 10:23:02;;;;;;;10.00;6.20;;;23.50;51.60;;;;;;4983859;28;20477;-73
2021/07/21 10:25:30;;;;;;;13.40;6.63;;;23.30;52.10;;;;;;4976844;28;20034;-74
2021/07/21 10:27:58;;;;;;;12.25;6.53;;;23.40;54.90;;;;;;4977059;28;20026;-74
2021/07/21 10:30:24;;;;;;;;;;;23.50;54.20;;;;;;4979217;28;20034;-73
2021/07/21 10:32:50;;;;;;;10.65;6.60;;;23.60;53.30;;;;;;4972721;28;19917;-73
2021/07/21 10:35:16;;;;;;;12.25;7.07;;;23.60;52.80;;;;;;4981712;28;20554;-74
2021/07/21 10:37:42;;;;;;;10.88;6.78;;;23.60;52.60;;;;;;4972200;28;20038;-74
2021/07/21 10:40:08;;;;;;;13.60;7.47;;;23.40;51.70;;;;;;4975715;28;20026;-74
2021/07/21 10:42:34;;;;;;;10.60;6.40;;;23.30;53.10;;;;;;4976749;28;20035;-74
2021/07/21 10:45:33;;;;;;;9.98;6.45;;;23.50;53.10;;;;;;4970858;28;22333;-73
2021/07/21 10:51:08;;;;;;;13.45;7.50;;;23.80;53.80;;;;;;4972505;28;20046;-73
2021/07/21 10:59:15;;;;;;;10.73;6.10;;;23.90;53.10;;;;;;4974524;28;20085;-72
2021/07/21 11:01:44;;;;;;;13.85;7.10;;;23.70;51.60;;;;;;4967045;28;20661;-72
2021/07/21 11:04:10;;;;;;;11.52;6.43;;;23.50;51.50;;;;;;4970898;28;20568;-73
2021/07/21 11:06:48;;;;;;;10.27;6.82;;;23.50;51.80;;;;;;4977672;28;20050;-73
2021/07/21 11:09:31;;;;;;;10.77;7.32;;;23.70;53.50;;;;;;4976703;28;20019;-74
2021/07/21 11:11:58;;;;;;;12.65;6.80;;;23.70;50.80;;;;;;4975724;28;20018;-73
2021/07/21 11:14:29;;;;;;;14.60;7.70;;;23.50;49.90;;;;;;4978486;28;20035;-74
2021/07/21 11:17:16;;;;;;;12.77;7.25;;;23.60;52.30;;;;;;4983766;28;20117;-76
2021/07/21 11:19:42;;;;;;;10.57;6.28;;;23.80;52.00;;;;;;4977605;28;20047;-74
2021/07/21 11:22:30;;;;;;;13.05;6.55;;;23.90;52.80;;;;;;4981112;28;20402;-74
2021/07/21 11:25:15;;;;;;;10.95;6.30;;;23.90;53.30;;;;;;4976107;28;20039;-74
2021/07/21 11:27:55;;;;;;;10.65;6.70;;;23.90;50.70;;;;;;4980939;28;20042;-74
2021/07/21 11:30:34;;;;;;;10.65;6.40;;;24.00;51.50;;;;;;4972982;28;20432;-74
2021/07/21 11:33:38;;;;;;;14.40;7.38;;;23.90;52.80;;;;;;4979427;28;20085;-74
2021/07/21 11:36:04;;;;;;;11.23;7.20;;;23.90;52.70;;;;;;4970891;28;20092;-73
2021/07/21 11:38:50;;;;;;;12.90;6.93;;;24.00;54.30;;;;;;4972945;28;20026;-74
2021/07/21 11:41:47;;;;;;;11.70;6.45;;;24.00;53.90;;;;;;4975840;28;20502;-74
2021/07/21 11:44:30;;;;;;;15.55;7.88;;;24.10;53.90;;;;;;4973138;28;20080;-73
2021/07/21 11:46:58;;;;;;;13.25;7.18;;;24.00;53.70;;;;;;4975361;28;20153;-74
2021/07/21 11:49:25;;;;;;;12.23;7.25;;;23.90;52.20;;;;;;4973647;28;20022;-73
2021/07/21 11:51:53;;;;;;;13.70;7.55;;;24.00;54.30;;;;;;4978959;28;20373;-73
2021/07/21 11:54:21;;;;;;;12.23;7.32;;;24.00;53.30;;;;;;4977236;28;20034;-74
2021/07/21 11:56:47;;;;;;;13.00;6.70;;;23.90;52.60;;;;;;4982218;28;20058;-74
2021/07/21 11:59:13;;;;;;;8.98;6.47;;;24.00;53.10;;;;;;4973665;28;20030;-74
2021/07/21 12:01:39;;;;;;;11.10;7.05;;;24.00;50.40;;;;;;4979360;28;20069;-73
2021/07/21 12:04:04;;;;;;;13.50;7.43;;;24.00;48.30;;;;;;4974467;28;20058;-73
2021/07/21 12:06:30;;;;;;;13.15;7.07;;;24.00;48.90;;;;;;4978085;28;20080;-73
2021/07/21 12:08:57;;;;;;;10.93;6.65;;;24.10;51.20;;;;;;4978466;28;20141;-73
2021/07/21 12:11:25;;;;;;;10.32;6.47;;;24.30;52.50;;;;;;4975441;28;20766;-73
2021/07/21 12:14:01;;;;;;;11.73;6.90;;;24.30;50.60;;;;;;4969557;28;20042;-73
2021/07/21 12:16:30;;;;;;;10.70;6.53;;;24.20;50.00;;;;;;4976910;28;20046;-73
2021/07/21 12:19:01;;;;;;;12.20;7.43;;;24.10;50.50;;;;;;4974365;28;20038;-73
2021/07/21 12:21:30;;;;;;;9.57;6.55;;;24.00;50.10;;;;;;4980907;28;20059;-73
2021/07/21 12:23:58;;;;;;;12.95;6.82;;;24.00;49.70;;;;;;4979394;28;20042;-74
2021/07/21 12:26:24;;;;;;;;;;;24.10;50.70;;;;;;4974863;28;20026;-73
2021/07/21 12:28:56;;;;;;;9.43;6.30;;;24.00;48.70;;;;;;4992714;28;19918;-73
2021/07/21 12:31:29;;;;;;;10.55;6.85;;;24.10;50.50;;;;;;4977569;28;20102;-72
2021/07/21 12:34:17;;;;;;;11.52;6.70;;;24.00;51.60;;;;;;4981078;28;20045;-74
2021/07/21 12:36:48;;;;;;;12.93;6.88;;;24.00;48.00;;;;;;4979879;28;20018;-72
2021/07/21 12:39:16;;;;;;;11.80;7.72;;;24.00;50.50;;;;;;4975269;28;20042;-73
2021/07/21 12:41:42;;;;;;;11.48;7.35;;;24.10;52.40;;;;;;4974343;28;20025;-72
2021/07/21 12:44:26;;;;;;;13.30;6.80;;;24.20;51.20;;;;;;4980530;28;20022;-74
2021/07/21 12:47:15;;;;;;;11.77;6.75;;;24.20;48.70;;;;;;4972569;28;20068;-73
2021/07/21 12:49:44;;;;;;;12.00;7.28;;;24.10;50.80;;;;;;4973409;28;20052;-74
2021/07/21 12:52:12;;;;;;;12.05;6.85;;;24.30;50.50;;;;;;4971864;28;20033;-73
2021/07/21 12:54:38;;;;;;;9.13;6.60;;;24.40;52.30;;;;;;4983465;28;20121;-73
2021/07/21 12:57:04;;;;;;;13.55;7.47;;;24.40;51.10;;;;;;4971917;28;20476;-73
2021/07/21 12:59:37;;;;;;;12.85;6.82;;;24.40;50.50;;;;;;4972358;28;20113;-74
2021/07/21 13:02:11;;;;;;;11.00;7.35;;;24.40;51.40;;;;;;4968865;28;20039;-73
2021/07/21 13:04:39;;;;;;;10.95;7.32;;;24.40;51.50;;;;;;4973578;28;20065;-74
2021/07/21 13:07:07;;;;;;;11.45;7.10;;;24.50;51.60;;;;;;4983819;28;20034;-74